Romoe Maersk — OXLC2 — position and weather

sailwx.info

Track history (hours):
 
Tides and Currents Weather Stations Pressure Air Temp Water Temp Dewpoint Dewpoint Depression Visibility Wind Speed Wind Dir Waves Ship Positions

Romoe Maersk

Last reported at 2017-Apr-29 09:07 UTC. Time now 2017-Apr-29 15:42 UTC.
Position N 01°14' E 103°30'.

Length 171 m; draft 6.5 m.

Type: Ship. MMSI: 220209000.

Date/timePositionNaut miles runAvg speedWind from/ knotsBaromVisibWave heightAir tempDewpointWater temp
2017-Apr-29 09:07N 01°14' E 103°30'0 0.6
2017-Apr-29 08:53N 01°14' E 103°30'0 0.0
2017-Apr-29 03:08N 01°14' E 103°31'0 0.3
2017-Apr-29 03:01N 01°14' E 103°31'0 0.1
2017-Apr-28 22:35N 01°14' E 103°30'0 0.1
2017-Apr-28 22:28N 01°14' E 103°30'0 0.1
2017-Apr-28 21:53N 01°14' E 103°30'0 0.2
2017-Apr-28 21:17N 01°14' E 103°30'0 0.1
2017-Apr-28 21:00N 01°14' E 103°30'0 0.3
2017-Apr-28 20:23N 01°14' E 103°31'1 1.9
2017-Apr-28 20:00N 01°14' E 103°31'2 4.3
2017-Apr-28 19:30N 01°13' E 103°33'4 6.6
2017-Apr-28 18:58N 01°12' E 103°37'3 6.6
2017-Apr-28 18:30N 01°11' E 103°40'4 7.3
2017-Apr-28 18:00N 01°09' E 103°42'3 5.8
2017-Apr-28 17:30N 01°09' E 103°45'510.8
2017-Apr-28 17:00N 01°11' E 103°50'  
Track history (hours):
 
Tides and Currents Weather Stations Pressure Air Temp Water Temp Dewpoint Dewpoint Depression Visibility Wind Speed Wind Dir Waves Ship Positions

Romoe Maersk

Last reported at 2017-Apr-29 09:07 UTC. Time now 2017-Apr-29 15:42 UTC.
Position N 01°14' E 103°30'.

Length 171 m; draft 6.5 m.

Type: Ship. MMSI: 220209000.

Date/timePositionNaut miles runAvg speedWind from/ knotsBaromVisibWave heightAir tempDewpointWater temp
2017-Apr-29 09:07N 01°14' E 103°30'0 0.6
2017-Apr-29 08:53N 01°14' E 103°30'0 0.0
2017-Apr-29 03:08N 01°14' E 103°31'0 0.3
2017-Apr-29 03:01N 01°14' E 103°31'0 0.1
2017-Apr-28 22:35N 01°14' E 103°30'0 0.1
2017-Apr-28 22:28N 01°14' E 103°30'0 0.1
2017-Apr-28 21:53N 01°14' E 103°30'0 0.2
2017-Apr-28 21:17N 01°14' E 103°30'0 0.1
2017-Apr-28 21:00N 01°14' E 103°30'0 0.3
2017-Apr-28 20:23N 01°14' E 103°31'1 1.9
2017-Apr-28 20:00N 01°14' E 103°31'2 4.3
2017-Apr-28 19:30N 01°13' E 103°33'4 6.6
2017-Apr-28 18:58N 01°12' E 103°37'3 6.6
2017-Apr-28 18:30N 01°11' E 103°40'4 7.3
2017-Apr-28 18:00N 01°09' E 103°42'3 5.8
2017-Apr-28 17:30N 01°09' E 103°45'510.8
2017-Apr-28 17:00N 01°11' E 103°50'  

Dump ship's entire track history